Time;durP1;ratioP1;P1;durP2;ratioP2;P2;SDS_P1;SDS_P2;PMS_P1;PMS_P2;Temp;Humidity;BMP_temperature;BMP_pressure;BME280_temperature;BME280_humidity;BME280_pressure;Samples;Min_cycle;Max_cycle;Signal;HPM_P1;HPM_P2
2021/03/21 00:01:59;;;;;;;3.12;1.95;;;2.90;99.90;;;;;;1898982;74;21127;-76
2021/03/21 00:04:27;;;;;;;2.98;1.90;;;2.90;99.90;;;;;;1907116;74;21152;-76
2021/03/21 00:06:53;;;;;;;4.53;2.08;;;2.90;99.90;;;;;;1904751;75;21081;-74
2021/03/21 00:09:19;;;;;;;2.55;2.00;;;3.00;99.90;;;;;;1906574;74;21086;-75
2021/03/21 00:11:45;;;;;;;5.70;2.20;;;3.00;99.90;;;;;;1909001;74;21074;-73
2021/03/21 00:14:11;;;;;;;2.80;2.25;;;2.90;99.90;;;;;;1906033;74;21201;-75
2021/03/21 00:16:37;;;;;;;3.77;2.47;;;2.80;99.90;;;;;;1896904;74;21041;-75
2021/03/21 00:19:04;;;;;;;10.00;2.75;;;2.90;99.90;;;;;;1901605;74;21086;-75
2021/03/21 00:21:30;;;;;;;18.27;2.45;;;2.90;99.90;;;;;;1910202;74;21082;-75
2021/03/21 00:23:56;;;;;;;4.40;2.40;;;3.00;99.90;;;;;;1898760;74;21088;-75
2021/03/21 00:26:22;;;;;;;4.00;2.80;;;2.90;99.90;;;;;;1896979;74;21133;-75
2021/03/21 00:28:48;;;;;;;7.03;3.22;;;2.90;99.90;;;;;;1900647;74;21571;-75
2021/03/21 00:31:14;;;;;;;3.75;2.30;;;2.90;99.90;;;;;;1898551;74;21438;-75
2021/03/21 00:33:40;;;;;;;5.05;2.72;;;3.00;99.90;;;;;;1894497;74;21479;-75
2021/03/21 00:36:06;;;;;;;3.92;2.67;;;2.90;99.90;;;;;;1895082;74;21082;-75
2021/03/21 00:38:33;;;;;;;5.42;3.40;;;2.80;99.90;;;;;;1907248;74;21078;-75
2021/03/21 00:40:59;;;;;;;5.47;2.95;;;2.80;99.90;;;;;;1895132;74;21142;-75
2021/03/21 00:43:25;;;;;;;2.70;1.95;;;3.00;99.90;;;;;;1909607;74;21198;-76
2021/03/21 00:45:51;;;;;;;5.05;2.65;;;2.90;99.90;;;;;;1898147;74;21079;-75
2021/03/21 00:48:17;;;;;;;3.72;2.35;;;2.90;99.90;;;;;;1905177;74;21159;-76
2021/03/21 00:50:43;;;;;;;3.20;2.35;;;2.90;99.90;;;;;;1899170;74;21588;-75
2021/03/21 00:53:09;;;;;;;3.52;2.08;;;2.90;99.90;;;;;;1895281;74;21523;-74
2021/03/21 00:55:35;;;;;;;2.67;2.02;;;3.00;99.90;;;;;;1897131;74;21469;-75
2021/03/21 00:58:02;;;;;;;3.12;1.98;;;2.90;99.90;;;;;;1901580;74;21080;-75
2021/03/21 01:00:28;;;;;;;3.35;2.02;;;3.00;99.90;;;;;;1895362;74;21082;-75
2021/03/21 01:02:54;;;;;;;2.92;1.90;;;2.90;99.90;;;;;;1897273;74;21086;-76
2021/03/21 01:05:20;;;;;;;4.47;1.67;;;3.00;99.90;;;;;;1905960;74;21134;-76
2021/03/21 01:07:46;;;;;;;2.72;1.90;;;3.00;99.90;;;;;;1897710;74;21065;-75
2021/03/21 01:10:12;;;;;;;6.30;2.15;;;3.00;99.90;;;;;;1910346;75;21152;-75
2021/03/21 01:12:38;;;;;;;3.47;2.02;;;2.90;99.90;;;;;;1900604;74;21504;-73
2021/03/21 01:15:04;;;;;;;2.10;1.85;;;2.90;99.90;;;;;;1903668;74;21552;-76
2021/03/21 01:17:31;;;;;;;11.78;2.47;;;3.00;99.90;;;;;;1894642;74;21439;-73
2021/03/21 01:19:57;;;;;;;6.33;2.52;;;2.90;99.90;;;;;;1897777;74;21142;-76
2021/03/21 01:22:23;;;;;;;3.35;2.02;;;2.90;99.90;;;;;;1906414;75;21072;-75
2021/03/21 01:24:49;;;;;;;4.83;2.37;;;2.90;99.90;;;;;;1899550;74;21077;-75
2021/03/21 01:27:16;;;;;;;3.22;2.15;;;2.90;99.90;;;;;;1908496;74;21072;-75
2021/03/21 01:29:42;;;;;;;3.00;2.45;;;2.90;99.90;;;;;;1901133;74;21155;-75
2021/03/21 01:32:10;;;;;;;8.45;2.33;;;2.80;99.90;;;;;;1908376;74;21576;-76
2021/03/21 01:34:36;;;;;;;9.33;2.65;;;2.80;99.90;;;;;;1897899;74;21084;-73
2021/03/21 01:37:02;;;;;;;6.55;2.83;;;2.80;99.90;;;;;;1893007;74;21081;-75
2021/03/21 01:39:28;;;;;;;4.22;2.42;;;2.80;99.90;;;;;;1906426;74;21051;-75
2021/03/21 01:41:54;;;;;;;4.17;2.37;;;2.80;99.90;;;;;;1897125;74;21144;-75
2021/03/21 01:44:20;;;;;;;5.00;2.52;;;2.90;99.90;;;;;;1906087;74;21098;-76
2021/03/21 01:46:47;;;;;;;7.83;2.60;;;2.90;99.90;;;;;;1907388;74;21080;-75
2021/03/21 01:49:13;;;;;;;3.17;2.60;;;2.80;99.90;;;;;;1903575;74;21078;-75
2021/03/21 01:51:39;;;;;;;4.00;2.37;;;2.80;99.90;;;;;;1903130;74;21078;-76
2021/03/21 01:54:05;;;;;;;3.42;2.17;;;2.80;99.90;;;;;;1912179;74;21082;-75
2021/03/21 01:56:31;;;;;;;3.22;2.20;;;2.80;99.90;;;;;;1908097;74;21087;-76
2021/03/21 01:58:57;;;;;;;5.87;2.15;;;2.80;99.90;;;;;;1899658;74;21046;-75
2021/03/21 02:01:23;;;;;;;7.67;2.70;;;2.80;99.90;;;;;;1900959;74;21090;-76
2021/03/21 02:03:49;;;;;;;3.35;2.00;;;2.80;99.90;;;;;;1898499;74;21150;-75
2021/03/21 02:06:16;;;;;;;6.45;2.65;;;2.70;99.90;;;;;;1894664;74;21530;-76
2021/03/21 02:08:42;;;;;;;3.52;2.37;;;2.60;99.90;;;;;;1898238;74;21493;-75
2021/03/21 02:11:11;;;;;;;3.40;2.47;;;2.60;99.90;;;;;;1901229;74;21129;-75
2021/03/21 02:13:37;;;;;;;5.10;2.58;;;2.80;99.90;;;;;;1909649;74;21086;-74
2021/03/21 02:16:03;;;;;;;3.80;2.40;;;2.80;99.90;;;;;;1905789;74;21078;-76
2021/03/21 02:18:29;;;;;;;3.65;2.30;;;2.80;99.90;;;;;;1901738;74;21089;-76
2021/03/21 02:20:55;;;;;;;3.33;1.92;;;2.90;99.90;;;;;;1897941;74;21069;-76
2021/03/21 02:23:22;;;;;;;5.00;2.70;;;2.90;99.90;;;;;;1904763;74;21051;-76
2021/03/21 02:25:48;;;;;;;3.92;2.52;;;2.90;99.90;;;;;;1903055;74;21137;-75
2021/03/21 02:28:14;;;;;;;3.70;2.12;;;3.00;99.90;;;;;;1900721;74;21084;-76
2021/03/21 02:30:40;;;;;;;5.55;2.40;;;2.90;99.90;;;;;;1907654;74;21078;-76
2021/03/21 02:33:06;;;;;;;3.42;2.15;;;2.80;99.90;;;;;;1906384;74;21066;-76
2021/03/21 02:35:32;;;;;;;2.25;1.65;;;2.80;99.90;;;;;;1893259;75;21081;-76
2021/03/21 02:37:58;;;;;;;6.23;2.37;;;2.70;99.90;;;;;;1897671;74;21203;-75
2021/03/21 02:40:24;;;;;;;9.03;1.47;;;2.80;99.90;;;;;;1902512;74;21080;-76
2021/03/21 02:42:51;;;;;;;3.27;2.05;;;2.80;99.90;;;;;;1906317;75;21074;-75
2021/03/21 02:45:17;;;;;;;3.42;2.20;;;2.60;99.90;;;;;;1893101;74;21123;-76
2021/03/21 02:47:43;;;;;;;3.15;2.10;;;2.80;99.90;;;;;;1895765;74;21068;-76
2021/03/21 02:50:09;;;;;;;3.98;2.27;;;2.80;99.90;;;;;;1910189;74;21086;-73
2021/03/21 02:52:35;;;;;;;3.20;2.20;;;2.80;99.90;;;;;;1908531;74;21478;-75
2021/03/21 02:55:01;;;;;;;3.20;1.90;;;2.70;99.90;;;;;;1904272;74;21152;-75
2021/03/21 02:57:27;;;;;;;3.10;1.82;;;2.80;99.90;;;;;;1895129;74;21078;-73
2021/03/21 02:59:54;;;;;;;3.90;1.98;;;2.80;99.90;;;;;;1897453;74;21152;-75
2021/03/21 03:02:20;;;;;;;5.83;2.00;;;2.80;99.90;;;;;;1899401;74;21090;-75
2021/03/21 03:04:46;;;;;;;2.47;1.87;;;2.90;99.90;;;;;;1905893;74;21516;-75
2021/03/21 03:07:12;;;;;;;2.75;1.80;;;2.80;99.90;;;;;;1910798;74;21501;-75
2021/03/21 03:09:38;;;;;;;2.50;2.08;;;2.80;99.90;;;;;;1909224;74;21094;-75
2021/03/21 03:12:04;;;;;;;3.80;2.05;;;2.80;99.90;;;;;;1904819;74;21082;-75
2021/03/21 03:14:30;;;;;;;4.80;2.52;;;2.70;99.90;;;;;;1894430;74;21128;-73
2021/03/21 03:16:57;;;;;;;3.52;2.37;;;2.70;99.90;;;;;;1910175;74;21055;-75
2021/03/21 03:19:23;;;;;;;3.58;2.30;;;2.70;99.90;;;;;;1899928;74;21117;-75
2021/03/21 03:21:49;;;;;;;2.30;2.10;;;2.70;99.90;;;;;;1893794;74;21194;-74
2021/03/21 03:24:15;;;;;;;3.42;2.20;;;2.70;99.90;;;;;;1902883;74;21076;-74
2021/03/21 03:26:41;;;;;;;7.40;2.30;;;2.80;99.90;;;;;;1903719;74;21529;-74
2021/03/21 03:29:07;;;;;;;6.17;2.25;;;2.80;99.90;;;;;;1905516;74;21485;-74
2021/03/21 03:31:33;;;;;;;1.95;1.82;;;2.90;99.90;;;;;;1894615;74;21575;-74
2021/03/21 03:33:59;;;;;;;6.12;1.77;;;2.90;99.90;;;;;;1903336;74;21059;-74
2021/03/21 03:36:26;;;;;;;2.80;1.87;;;2.80;99.90;;;;;;1893199;74;21073;-74
2021/03/21 03:38:52;;;;;;;3.52;2.00;;;2.90;99.90;;;;;;1892997;74;21084;-74
2021/03/21 03:41:18;;;;;;;3.22;2.45;;;2.90;99.90;;;;;;1902347;74;21075;-74
2021/03/21 03:43:44;;;;;;;4.60;1.75;;;2.90;99.90;;;;;;1911123;74;21151;-74
2021/03/21 03:46:10;;;;;;;16.23;2.58;;;2.80;99.90;;;;;;1901086;75;21147;-74
2021/03/21 03:48:36;;;;;;;4.28;2.37;;;2.70;99.90;;;;;;1903999;74;21144;-74
2021/03/21 03:51:02;;;;;;;3.98;2.33;;;2.80;99.90;;;;;;1901481;74;21035;-74
2021/03/21 03:53:28;;;;;;;5.90;2.17;;;2.80;99.90;;;;;;1910108;74;21055;-74
2021/03/21 03:55:55;;;;;;;6.67;2.55;;;2.80;99.90;;;;;;1895494;74;21151;-74
2021/03/21 03:58:21;;;;;;;5.03;2.52;;;2.70;99.90;;;;;;1893274;74;21217;-74
2021/03/21 04:00:47;;;;;;;3.02;2.37;;;2.80;99.90;;;;;;1910177;74;21580;-73
2021/03/21 04:03:13;;;;;;;2.65;2.20;;;2.80;99.90;;;;;;1901172;74;21565;-74
2021/03/21 04:05:39;;;;;;;4.65;1.85;;;2.90;99.90;;;;;;1900085;74;21148;-74
2021/03/21 04:08:05;;;;;;;4.28;2.27;;;2.80;99.90;;;;;;1904577;74;21153;-74
2021/03/21 04:10:31;;;;;;;4.12;2.02;;;2.80;99.90;;;;;;1902093;74;21047;-73
2021/03/21 04:12:57;;;;;;;9.83;2.17;;;2.90;99.90;;;;;;1905238;74;21084;-76
2021/03/21 04:15:24;;;;;;;5.75;2.15;;;2.80;99.90;;;;;;1906261;74;21086;-75
2021/03/21 04:17:50;;;;;;;4.35;2.22;;;2.70;99.90;;;;;;1906575;74;21075;-75
2021/03/21 04:20:16;;;;;;;2.25;2.05;;;2.80;99.90;;;;;;1907101;74;21096;-76
2021/03/21 04:22:42;;;;;;;5.08;2.40;;;2.70;99.90;;;;;;1904033;74;21136;-74
2021/03/21 04:25:09;;;;;;;2.12;1.70;;;2.80;99.90;;;;;;1897953;74;21116;-75
2021/03/21 04:27:35;;;;;;;2.27;1.80;;;2.80;99.90;;;;;;1904681;74;21074;-75
2021/03/21 04:30:01;;;;;;;3.22;2.25;;;2.80;99.90;;;;;;1908029;74;21090;-75
2021/03/21 04:32:27;;;;;;;2.15;1.82;;;2.80;99.90;;;;;;1902734;74;21140;-75
2021/03/21 04:34:53;;;;;;;3.80;1.82;;;2.70;99.90;;;;;;1893774;74;21089;-75
2021/03/21 04:37:19;;;;;;;3.90;2.20;;;2.70;99.90;;;;;;1893060;74;21089;-75
2021/03/21 04:39:45;;;;;;;4.70;2.25;;;2.70;99.90;;;;;;1896011;74;21063;-75
2021/03/21 04:42:11;;;;;;;2.70;2.08;;;2.60;99.90;;;;;;1907391;74;21080;-75
2021/03/21 04:44:38;;;;;;;1.90;1.65;;;2.60;99.90;;;;;;1897055;74;21084;-75
2021/03/21 04:47:04;;;;;;;3.30;2.12;;;2.60;99.90;;;;;;1904593;74;21074;-75
2021/03/21 04:49:30;;;;;;;2.55;1.90;;;2.60;99.90;;;;;;1904437;75;21080;-75
2021/03/21 04:51:58;;;;;;;3.33;2.10;;;2.60;99.90;;;;;;1898082;74;21072;-75
2021/03/21 04:54:24;;;;;;;4.05;2.50;;;2.70;99.90;;;;;;1902964;74;21072;-75
2021/03/21 04:56:50;;;;;;;5.78;2.65;;;2.60;99.90;;;;;;1900937;75;21089;-74
2021/03/21 04:59:17;;;;;;;2.95;2.15;;;2.60;99.90;;;;;;1893698;74;21098;-75
2021/03/21 05:01:43;;;;;;;4.03;2.58;;;2.60;99.90;;;;;;1857945;76;21050;-75
2021/03/21 05:04:09;;;;;;;2.50;2.30;;;2.60;99.90;;;;;;1880937;76;21609;-75
2021/03/21 05:06:35;;;;;;;6.05;2.40;;;2.60;99.90;;;;;;1879631;76;21561;-75
2021/03/21 05:09:01;;;;;;;2.83;2.40;;;2.70;99.90;;;;;;1871686;76;21533;-75
2021/03/21 05:11:27;;;;;;;2.67;2.33;;;2.70;99.90;;;;;;1871849;76;21141;-75
2021/03/21 05:13:55;;;;;;;4.87;2.60;;;2.60;99.90;;;;;;1848724;75;21085;-75
2021/03/21 05:16:21;;;;;;;5.87;3.00;;;2.60;99.90;;;;;;1850842;75;21158;-75
2021/03/21 05:18:47;;;;;;;6.47;2.90;;;2.60;99.90;;;;;;1852449;75;21083;-74
2021/03/21 05:21:13;;;;;;;5.00;2.37;;;2.50;99.90;;;;;;1879636;76;21146;-73
2021/03/21 05:23:40;;;;;;;3.50;2.05;;;2.60;99.90;;;;;;1863258;75;21113;-75
2021/03/21 05:26:06;;;;;;;3.85;2.55;;;2.70;99.90;;;;;;1865824;75;21222;-74
2021/03/21 05:28:32;;;;;;;6.33;3.08;;;2.70;99.90;;;;;;1860741;75;21097;-75
2021/03/21 05:30:58;;;;;;;4.47;2.70;;;2.70;99.90;;;;;;1844895;76;21060;-75
2021/03/21 05:33:24;;;;;;;3.90;2.55;;;2.90;99.90;;;;;;1859270;75;21106;-75
2021/03/21 05:35:50;;;;;;;2.67;2.27;;;2.80;99.90;;;;;;1836556;75;21097;-74
2021/03/21 05:38:17;;;;;;;11.75;2.50;;;2.80;99.90;;;;;;1859924;75;21097;-75
2021/03/21 05:40:43;;;;;;;3.45;2.20;;;2.80;99.90;;;;;;1859823;76;21505;-75
2021/03/21 05:43:09;;;;;;;7.28;2.62;;;2.90;99.90;;;;;;1850977;75;21582;-75
2021/03/21 05:45:35;;;;;;;3.77;2.37;;;2.90;99.90;;;;;;1848154;76;21152;-75
2021/03/21 05:48:01;;;;;;;5.05;2.50;;;2.90;99.90;;;;;;1857046;75;21159;-75
2021/03/21 05:50:27;;;;;;;3.15;2.08;;;2.90;99.90;;;;;;1873302;76;21089;-75
2021/03/21 05:52:53;;;;;;;3.05;2.17;;;2.80;99.90;;;;;;1843714;75;21066;-75
2021/03/21 05:55:19;;;;;;;2.92;2.08;;;2.80;99.90;;;;;;1851879;75;21129;-74
2021/03/21 05:57:46;;;;;;;7.47;2.92;;;2.80;99.90;;;;;;1839400;76;21081;-75
2021/03/21 06:00:12;;;;;;;3.08;2.27;;;2.70;99.90;;;;;;1879717;76;21133;-75
2021/03/21 06:02:38;;;;;;;5.53;2.62;;;2.90;99.90;;;;;;1879908;76;21075;-75
2021/03/21 06:05:04;;;;;;;4.05;2.08;;;3.00;99.90;;;;;;1879454;76;21170;-75
2021/03/21 06:07:30;;;;;;;4.47;2.62;;;2.80;99.90;;;;;;1879704;76;21103;-75
2021/03/21 06:09:56;;;;;;;7.50;2.62;;;2.70;99.90;;;;;;1867348;76;21174;-75
2021/03/21 06:12:22;;;;;;;3.92;2.60;;;2.70;99.90;;;;;;1844711;76;21445;-75
2021/03/21 06:14:48;;;;;;;5.37;3.00;;;2.70;99.90;;;;;;1871341;76;21558;-75
2021/03/21 06:17:15;;;;;;;3.02;2.42;;;2.90;99.90;;;;;;1861933;75;21533;-75
2021/03/21 06:19:41;;;;;;;6.45;2.75;;;2.90;99.90;;;;;;1836401;75;21159;-74
2021/03/21 06:22:07;;;;;;;3.75;2.33;;;3.00;99.90;;;;;;1863808;76;21157;-75
2021/03/21 06:24:33;;;;;;;3.55;2.33;;;3.00;99.90;;;;;;1872193;75;21132;-75
2021/03/21 06:27:00;;;;;;;8.88;3.02;;;3.10;99.90;;;;;;1857370;76;21119;-74
2021/03/21 06:29:26;;;;;;;2.08;1.87;;;3.20;99.90;;;;;;1879667;76;21157;-74
2021/03/21 06:31:52;;;;;;;5.03;2.35;;;3.20;99.90;;;;;;1869048;76;21089;-74
2021/03/21 06:34:18;;;;;;;6.85;2.20;;;3.10;99.90;;;;;;1843015;76;21076;-74
2021/03/21 06:36:44;;;;;;;3.70;2.40;;;3.10;99.90;;;;;;1877446;75;21065;-79
2021/03/21 06:39:10;;;;;;;3.80;2.30;;;3.20;99.90;;;;;;1874324;76;21091;-78
2021/03/21 06:41:36;;;;;;;4.08;2.67;;;3.10;99.90;;;;;;1879822;76;21162;-74
2021/03/21 06:44:03;;;;;;;5.40;2.67;;;3.10;99.90;;;;;;1843413;75;21595;-73
2021/03/21 06:46:29;;;;;;;3.17;2.10;;;3.10;99.90;;;;;;1853397;76;21527;-71
2021/03/21 06:48:55;;;;;;;4.40;2.47;;;3.20;99.90;;;;;;1867052;75;21525;-71
2021/03/21 06:51:21;;;;;;;4.72;2.40;;;3.20;99.90;;;;;;1836521;76;21089;-72
2021/03/21 06:53:47;;;;;;;5.75;2.60;;;3.20;99.90;;;;;;1873399;76;21192;-71
2021/03/21 06:56:13;;;;;;;4.80;2.60;;;3.30;99.90;;;;;;1864391;75;21093;-72
2021/03/21 06:58:39;;;;;;;6.72;2.70;;;3.50;99.90;;;;;;1879785;76;21057;-72
2021/03/21 07:01:05;;;;;;;4.60;2.52;;;3.60;99.90;;;;;;1862870;75;21077;-72
2021/03/21 07:03:32;;;;;;;10.18;2.58;;;3.60;99.90;;;;;;1836789;76;21093;-72
2021/03/21 07:05:58;;;;;;;4.65;2.42;;;3.60;99.90;;;;;;1852466;75;21091;-73
2021/03/21 07:08:24;;;;;;;3.75;2.50;;;3.70;99.90;;;;;;1879985;76;21087;-72
2021/03/21 07:10:50;;;;;;;3.52;2.35;;;3.70;99.90;;;;;;1871562;76;21131;-71
2021/03/21 07:13:16;;;;;;;2.98;2.25;;;3.50;99.90;;;;;;1879914;75;21111;-71
2021/03/21 07:15:42;;;;;;;3.85;2.10;;;3.40;99.90;;;;;;1849088;75;21062;-71
2021/03/21 07:18:08;;;;;;;4.20;2.27;;;3.30;99.90;;;;;;1879808;76;21510;-71
2021/03/21 07:20:34;;;;;;;3.83;2.35;;;3.30;99.90;;;;;;1837898;76;21505;-71
2021/03/21 07:23:01;;;;;;;2.10;1.90;;;3.30;99.90;;;;;;1836617;76;21537;-71
2021/03/21 07:25:27;;;;;;;4.92;2.58;;;3.40;99.90;;;;;;1853933;76;21142;-71
2021/03/21 07:27:53;;;;;;;3.45;2.47;;;3.40;99.90;;;;;;1866627;75;21100;-71
2021/03/21 07:30:19;;;;;;;6.15;2.35;;;3.40;99.90;;;;;;1860854;76;21080;-70
2021/03/21 07:32:45;;;;;;;4.22;2.15;;;3.40;99.90;;;;;;1843469;75;21156;-70
2021/03/21 07:37:56;;;;;;;3.72;2.45;;;3.30;99.90;;;;;;1918250;72;21137;-70
2021/03/21 07:40:23;;;;;;;3.58;2.52;;;3.30;99.90;;;;;;1908106;74;21146;-70
2021/03/21 07:42:49;;;;;;;3.22;2.52;;;3.40;99.90;;;;;;1929445;73;21222;-73
2021/03/21 07:45:18;;;;;;;2.65;2.05;;;3.40;99.90;;;;;;1928713;72;21516;-69
2021/03/21 07:47:43;;;;;;;6.15;2.40;;;3.40;99.90;;;;;;1905749;72;21119;-70
2021/03/21 07:50:09;;;;;;;3.17;2.05;;;3.30;99.90;;;;;;1907367;72;21054;-70
2021/03/21 07:52:35;;;;;;;3.83;2.40;;;3.40;99.90;;;;;;1916197;73;21091;-69
2021/03/21 07:55:01;;;;;;;3.15;2.17;;;3.30;99.90;;;;;;1916115;73;21064;-70
2021/03/21 07:57:27;;;;;;;4.55;2.08;;;3.40;99.90;;;;;;1924780;72;21045;-70
2021/03/21 07:59:54;;;;;;;2.75;2.20;;;3.50;99.90;;;;;;1928617;73;21105;-69
2021/03/21 08:02:20;;;;;;;3.35;2.25;;;3.60;99.90;;;;;;1946088;74;21089;-70
2021/03/21 08:04:47;;;;;;;4.22;2.35;;;3.60;99.90;;;;;;1945843;74;21140;-71
2021/03/21 08:07:13;;;;;;;3.27;2.27;;;3.60;99.90;;;;;;1936847;72;21186;-72
2021/03/21 08:09:39;;;;;;;5.30;2.67;;;3.50;99.90;;;;;;1899841;73;21163;-69
2021/03/21 08:12:07;;;;;;;5.25;2.40;;;3.60;99.90;;;;;;1909307;74;21189;-71
2021/03/21 08:14:33;;;;;;;3.62;2.30;;;3.50;99.90;;;;;;1937259;73;21120;-71
2021/03/21 08:16:59;;;;;;;3.72;2.22;;;3.60;99.90;;;;;;1935644;72;21187;-71
2021/03/21 08:19:25;;;;;;;5.65;2.58;;;3.60;99.90;;;;;;1916168;72;21110;-70
2021/03/21 08:21:51;;;;;;;4.05;2.10;;;3.60;99.90;;;;;;1911397;72;21147;-70
2021/03/21 08:24:18;;;;;;;4.55;2.25;;;3.80;99.90;;;;;;1945900;73;21101;-71
2021/03/21 08:26:44;;;;;;;5.33;2.42;;;3.90;99.90;;;;;;1924481;72;21072;-71
2021/03/21 08:29:10;;;;;;;5.20;2.22;;;3.90;99.90;;;;;;1946074;74;21065;-71
2021/03/21 08:31:36;;;;;;;4.30;2.20;;;3.90;99.90;;;;;;1923036;73;21129;-71
2021/03/21 08:34:02;;;;;;;2.45;2.10;;;3.90;99.90;;;;;;1932405;72;21078;-72
2021/03/21 08:36:28;;;;;;;3.98;2.52;;;4.00;99.90;;;;;;1907371;72;21086;-72
2021/03/21 08:38:54;;;;;;;2.62;1.90;;;4.00;99.90;;;;;;1907401;72;21082;-70
2021/03/21 08:41:20;;;;;;;3.30;2.20;;;4.00;99.90;;;;;;1915035;73;21465;-74
2021/03/21 08:43:46;;;;;;;3.35;1.87;;;4.10;99.90;;;;;;1899740;75;21557;-71
2021/03/21 08:46:13;;;;;;;3.22;2.15;;;4.20;99.90;;;;;;1899813;72;21571;-71
2021/03/21 08:48:39;;;;;;;3.92;2.30;;;4.30;99.90;;;;;;1943167;72;21175;-71
2021/03/21 08:51:05;;;;;;;5.08;2.10;;;4.50;99.90;;;;;;1945976;74;21185;-72
2021/03/21 08:53:31;;;;;;;2.40;2.10;;;4.60;99.90;;;;;;1935226;72;21192;-73
2021/03/21 08:55:57;;;;;;;3.83;2.40;;;4.60;99.90;;;;;;1915632;72;21210;-72
2021/03/21 08:58:23;;;;;;;5.33;2.37;;;4.80;99.90;;;;;;1934804;73;21087;-72
2021/03/21 09:00:49;;;;;;;9.33;3.17;;;4.80;99.90;;;;;;1908836;72;21185;-72
2021/03/21 09:03:15;;;;;;;2.98;2.08;;;4.80;99.90;;;;;;1924814;73;21192;-72
2021/03/21 09:05:41;;;;;;;3.55;2.37;;;4.80;99.90;;;;;;1907302;74;21068;-72
2021/03/21 09:08:08;;;;;;;3.50;1.95;;;4.60;99.90;;;;;;1910011;73;21095;-72
2021/03/21 09:10:34;;;;;;;2.47;2.17;;;4.50;99.90;;;;;;1942422;72;21194;-75
2021/03/21 09:13:00;;;;;;;4.15;2.35;;;4.50;99.90;;;;;;1940309;73;21082;-75
2021/03/21 09:15:26;;;;;;;4.85;3.20;;;4.50;99.90;;;;;;1908487;74;21072;-75
2021/03/21 09:17:52;;;;;;;4.17;2.40;;;4.40;99.90;;;;;;1924253;73;21526;-72
2021/03/21 09:20:24;;;;;;;2.10;1.90;;;4.40;99.90;;;;;;1934175;73;21534;-77
2021/03/21 09:22:51;;;;;;;2.42;2.02;;;4.40;99.90;;;;;;1913243;72;21110;-71
2021/03/21 09:25:17;;;;;;;3.25;2.05;;;4.50;99.90;;;;;;1924027;72;21639;-72
2021/03/21 09:27:43;;;;;;;3.45;2.20;;;4.50;99.90;;;;;;1912222;72;21504;-72
2021/03/21 09:30:09;;;;;;;5.28;2.10;;;4.50;99.90;;;;;;1945987;74;21649;-71
2021/03/21 09:32:35;;;;;;;2.33;1.77;;;4.50;99.90;;;;;;1945934;72;21101;-70
2021/03/21 09:35:01;;;;;;;2.52;1.60;;;4.60;99.90;;;;;;1930520;72;21204;-71
2021/03/21 09:37:28;;;;;;;5.83;2.17;;;4.80;99.90;;;;;;1935560;73;21093;-71
2021/03/21 09:39:54;;;;;;;2.62;1.75;;;4.80;99.90;;;;;;1912617;72;21111;-71
2021/03/21 09:42:20;;;;;;;4.85;2.30;;;4.90;99.90;;;;;;1907408;73;21094;-71
2021/03/21 09:44:46;;;;;;;6.30;2.27;;;5.00;99.90;;;;;;1899704;73;21074;-71
2021/03/21 09:47:12;;;;;;;6.40;2.17;;;5.00;99.90;;;;;;1899609;72;21263;-71
2021/03/21 09:49:38;;;;;;;3.05;2.20;;;4.90;99.90;;;;;;1933363;72;21118;-71
2021/03/21 09:52:04;;;;;;;3.62;2.22;;;4.90;99.90;;;;;;1899784;75;21502;-71
2021/03/21 09:54:31;;;;;;;3.02;2.00;;;4.90;99.90;;;;;;1917393;72;21602;-71
2021/03/21 09:56:57;;;;;;;2.33;1.52;;;5.10;99.90;;;;;;1945852;74;21595;-71
2021/03/21 09:59:23;;;;;;;7.20;2.05;;;5.30;99.90;;;;;;1930468;72;21043;-71
2021/03/21 10:01:49;;;;;;;4.12;2.10;;;5.30;99.90;;;;;;1959700;73;21064;-72
2021/03/21 10:04:15;;;;;;;2.98;2.22;;;5.30;99.90;;;;;;1974577;72;21034;-71
2021/03/21 10:06:41;;;;;;;2.62;1.70;;;5.40;99.90;;;;;;1916397;74;21070;-71
2021/03/21 10:09:07;;;;;;;2.45;1.72;;;5.40;99.90;;;;;;1948024;72;21153;-71
2021/03/21 10:11:33;;;;;;;4.10;2.08;;;5.60;99.90;;;;;;1948990;73;21088;-71
2021/03/21 10:14:01;;;;;;;4.75;2.58;;;5.60;99.90;;;;;;1941669;73;21089;-71
2021/03/21 10:16:27;;;;;;;2.85;2.00;;;5.70;99.90;;;;;;1939730;73;21095;-71
2021/03/21 10:18:53;;;;;;;2.83;1.75;;;5.50;99.90;;;;;;1917385;73;21445;-72
2021/03/21 10:21:19;;;;;;;2.95;2.02;;;5.70;99.90;;;;;;1917250;73;21505;-71
2021/03/21 10:23:45;;;;;;;4.37;2.75;;;5.80;99.90;;;;;;1945431;73;21077;-71
2021/03/21 10:26:11;;;;;;;6.00;1.77;;;5.90;99.90;;;;;;1928262;72;21156;-71
2021/03/21 10:28:39;;;;;;;8.13;2.12;;;5.80;99.90;;;;;;1945911;74;21089;-71
2021/03/21 10:31:05;;;;;;;2.40;2.10;;;5.80;99.90;;;;;;1935911;72;21125;-71
2021/03/21 10:33:32;;;;;;;4.50;2.27;;;6.10;99.90;;;;;;1944139;73;21134;-71
2021/03/21 10:35:58;;;;;;;2.92;2.17;;;6.20;99.90;;;;;;1946053;74;21074;-71
2021/03/21 10:38:24;;;;;;;3.40;2.35;;;6.20;99.90;;;;;;1929080;72;21049;-72
2021/03/21 10:40:50;;;;;;;5.05;2.95;;;6.00;99.90;;;;;;1930102;73;21080;-72
2021/03/21 10:43:16;;;;;;;4.78;2.52;;;6.20;99.90;;;;;;1946873;72;21618;-73
2021/03/21 10:45:42;;;;;;;5.60;2.50;;;6.30;99.90;;;;;;1945952;73;21567;-70
2021/03/21 10:48:08;;;;;;;3.37;2.40;;;6.40;99.90;;;;;;1920329;73;21549;-71
2021/03/21 10:50:34;;;;;;;6.00;2.85;;;6.60;99.90;;;;;;1928366;72;21081;-69
2021/03/21 10:53:01;;;;;;;11.05;2.70;;;6.80;99.90;;;;;;1929559;73;21045;-72
2021/03/21 10:55:27;;;;;;;3.75;1.90;;;6.80;99.90;;;;;;1936836;72;21127;-72
2021/03/21 10:57:53;;;;;;;3.10;2.10;;;6.90;99.90;;;;;;1939581;72;21092;-71
2021/03/21 11:00:19;;;;;;;4.50;2.70;;;6.70;99.90;;;;;;1946035;74;21085;-70
2021/03/21 11:02:46;;;;;;;2.92;2.17;;;6.60;99.90;;;;;;1923386;73;21077;-72
2021/03/21 11:05:12;;;;;;;2.20;1.70;;;6.60;99.90;;;;;;1942826;74;21073;-72
2021/03/21 11:07:38;;;;;;;3.15;2.45;;;6.60;99.90;;;;;;1936584;72;21043;-71
2021/03/21 11:10:04;;;;;;;4.90;2.10;;;6.60;99.90;;;;;;1929425;73;21081;-71
2021/03/21 11:12:30;;;;;;;2.65;2.22;;;6.70;99.90;;;;;;1911925;75;21093;-72
2021/03/21 11:14:56;;;;;;;2.95;2.15;;;6.80;99.90;;;;;;1935829;72;21076;-72
2021/03/21 11:17:23;;;;;;;5.33;2.58;;;6.90;99.90;;;;;;1940775;74;21093;-71
2021/03/21 11:19:49;;;;;;;3.27;2.15;;;6.90;99.90;;;;;;1933195;73;21085;-71
2021/03/21 11:22:15;;;;;;;4.95;2.58;;;6.80;99.90;;;;;;1911721;73;21147;-70
2021/03/21 11:24:41;;;;;;;4.12;2.30;;;6.90;99.90;;;;;;1937279;73;21072;-71
2021/03/21 11:27:07;;;;;;;4.10;2.37;;;6.80;99.90;;;;;;1930066;72;21140;-71
2021/03/21 11:29:34;;;;;;;8.20;2.67;;;6.60;99.90;;;;;;1929863;73;21042;-71
2021/03/21 11:32:03;;;;;;;5.87;2.77;;;6.40;99.90;;;;;;1945963;74;21089;-71
2021/03/21 11:34:29;;;;;;;3.42;2.62;;;6.40;99.90;;;;;;1920663;72;21481;-71
2021/03/21 11:36:55;;;;;;;4.05;2.90;;;6.50;99.90;;;;;;1923825;73;21067;-71
2021/03/21 11:39:21;;;;;;;4.92;3.05;;;6.50;99.90;;;;;;1932408;72;21127;-71
2021/03/21 11:41:47;;;;;;;4.40;2.92;;;6.10;99.90;;;;;;1914906;72;21112;-71
2021/03/21 11:44:13;;;;;;;3.60;2.77;;;6.00;99.90;;;;;;1945831;74;21536;-71
2021/03/21 11:46:40;;;;;;;3.92;2.80;;;6.10;99.90;;;;;;1945881;74;21097;-71
2021/03/21 11:49:06;;;;;;;3.08;2.77;;;6.00;99.90;;;;;;1933708;72;21158;-71
2021/03/21 11:51:32;;;;;;;5.37;2.87;;;6.10;99.90;;;;;;1933894;72;21043;-71
2021/03/21 11:53:58;;;;;;;7.25;3.20;;;6.00;99.90;;;;;;1914577;73;21284;-69
2021/03/21 11:56:24;;;;;;;5.87;3.70;;;6.10;99.90;;;;;;1940165;73;21088;-70
2021/03/21 11:58:50;;;;;;;8.45;3.47;;;6.10;99.90;;;;;;1945942;74;21159;-70
2021/03/21 12:01:17;;;;;;;5.50;3.12;;;6.40;99.90;;;;;;1921597;72;21096;-70
2021/03/21 12:03:43;;;;;;;6.53;3.47;;;6.40;99.90;;;;;;1933766;73;21073;-70
2021/03/21 12:06:09;;;;;;;11.85;3.60;;;6.50;99.90;;;;;;1945893;74;21198;-72
2021/03/21 12:08:35;;;;;;;4.03;3.40;;;6.50;99.90;;;;;;1921330;72;21125;-71
2021/03/21 12:11:01;;;;;;;5.15;3.50;;;6.50;99.90;;;;;;1930199;72;21081;-71
2021/03/21 12:13:28;;;;;;;7.42;3.15;;;6.50;99.90;;;;;;1916885;74;21041;-71
2021/03/21 12:15:55;;;;;;;8.58;3.98;;;6.60;99.90;;;;;;1911950;72;21155;-71
2021/03/21 12:18:21;;;;;;;4.20;3.25;;;6.50;99.90;;;;;;1931914;72;21158;-70
2021/03/21 12:20:47;;;;;;;6.95;3.60;;;6.50;99.90;;;;;;1945893;74;21223;-72
2021/03/21 12:23:14;;;;;;;4.22;2.98;;;6.60;99.90;;;;;;1940125;72;21042;-70
2021/03/21 12:25:40;;;;;;;5.53;3.22;;;6.60;99.90;;;;;;1916430;72;21077;-71
2021/03/21 12:28:13;;;;;;;5.70;3.05;;;6.80;99.90;;;;;;1945335;74;21076;-68
2021/03/21 12:30:34;;;;;;;7.70;3.00;;;6.90;99.90;;;;;;1928222;72;21164;-69
2021/03/21 12:33:00;;;;;;;7.83;3.00;;;6.90;99.90;;;;;;1944357;74;21504;-70
2021/03/21 12:35:26;;;;;;;5.95;3.10;;;6.90;99.90;;;;;;1945860;73;21549;-71
2021/03/21 12:37:59;;;;;;;5.78;3.00;;;6.80;99.90;;;;;;1940080;72;21109;-71
2021/03/21 12:40:20;;;;;;;5.30;2.77;;;6.50;99.90;;;;;;1933093;72;21617;-72
2021/03/21 12:42:46;;;;;;;3.08;2.52;;;6.50;99.90;;;;;;1927642;72;21077;-71
2021/03/21 12:45:12;;;;;;;4.08;2.92;;;6.50;99.90;;;;;;1945939;74;21093;-71
2021/03/21 12:47:38;;;;;;;3.77;2.60;;;6.50;99.90;;;;;;1933178;73;21093;-72
2021/03/21 12:50:05;;;;;;;2.95;2.22;;;6.60;99.90;;;;;;1946208;73;21166;-72
2021/03/21 12:52:31;;;;;;;4.22;2.42;;;6.70;99.90;;;;;;1924954;72;21154;-70
2021/03/21 12:54:57;;;;;;;5.67;2.47;;;6.70;99.90;;;;;;1911841;72;21530;-71